Time;durP1;ratioP1;P1;durP2;ratioP2;P2;SDS_P1;SDS_P2;PMS_P1;PMS_P2;Temp;Humidity;BMP_temperature;BMP_pressure;BME280_temperature;BME280_humidity;BME280_pressure;Samples;Min_cycle;Max_cycle;Signal;HPM_P1;HPM_P2
2024/02/06 00:00:24;;;;;;;;;;;22.60;38.00;;;;;;5075894;28;19931;-59
2024/02/06 00:02:51;;;;;;;;;;;22.60;38.00;;;;;;5075840;28;20007;-59
2024/02/06 00:05:18;;;;;;;;;;;22.60;38.10;;;;;;5075466;28;19936;-59
2024/02/06 00:07:45;;;;;;;;;;;22.60;38.10;;;;;;5076036;28;20081;-59
2024/02/06 00:10:12;;;;;;;;;;;22.60;38.10;;;;;;5074221;28;19978;-59
2024/02/06 00:12:39;;;;;;;;;;;22.60;38.10;;;;;;5075663;28;20366;-59
2024/02/06 00:15:06;;;;;;;;;;;22.60;38.10;;;;;;5075495;28;19928;-59
2024/02/06 00:17:33;;;;;;;;;;;22.60;38.10;;;;;;5075589;28;19924;-59
2024/02/06 00:20:00;;;;;;;;;;;22.50;38.00;;;;;;5075531;28;20012;-59
2024/02/06 00:22:28;;;;;;;;;;;22.50;38.10;;;;;;5074942;28;19924;-59
2024/02/06 00:24:55;;;;;;;;;;;22.60;38.10;;;;;;5075258;28;20374;-59
2024/02/06 00:27:22;;;;;;;;;;;22.50;38.00;;;;;;5075596;28;19932;-59
2024/02/06 00:29:51;;;;;;;;;;;22.60;38.10;;;;;;5075492;28;19928;-59
2024/02/06 00:32:19;;;;;;;;;;;22.60;38.10;;;;;;5075385;28;19970;-59
2024/02/06 00:34:46;;;;;;;;;;;22.60;38.10;;;;;;5075401;28;20019;-59
2024/02/06 00:37:13;;;;;;;;;;;22.50;38.00;;;;;;5075054;28;20014;-59
2024/02/06 00:39:40;;;;;;;;;;;22.50;38.00;;;;;;5074602;28;19928;-60
2024/02/06 00:42:07;;;;;;;;;;;22.60;38.00;;;;;;5075130;28;20332;-59
2024/02/06 00:44:34;;;;;;;;;;;22.60;38.00;;;;;;5057513;28;19993;-59
2024/02/06 00:47:02;;;;;;;;;;;22.60;38.00;;;;;;5074783;28;19979;-59
2024/02/06 00:49:29;;;;;;;;;;;22.50;37.90;;;;;;5075274;28;19975;-59
2024/02/06 00:51:56;;;;;;;;;;;22.60;38.00;;;;;;5075168;28;20305;-59
2024/02/06 00:54:23;;;;;;;;;;;22.50;37.90;;;;;;5074671;28;20447;-59
2024/02/06 00:56:50;;;;;;;;;;;22.50;37.90;;;;;;5074490;28;19932;-59
2024/02/06 00:59:16;;;;;;;;;;;22.50;37.90;;;;;;5074689;28;19972;-59
2024/02/06 01:01:43;;;;;;;;;;;22.50;38.00;;;;;;5074581;28;20340;-59
2024/02/06 01:04:11;;;;;;;;;;;22.50;38.00;;;;;;5074359;28;19929;-58
2024/02/06 01:06:38;;;;;;;;;;;22.50;38.00;;;;;;5074533;28;19924;-59
2024/02/06 01:09:05;;;;;;;;;;;22.50;38.00;;;;;;5074343;28;19947;-59
2024/02/06 01:11:32;;;;;;;;;;;22.50;38.20;;;;;;5074578;28;19963;-59
2024/02/06 01:13:59;;;;;;;;;;;22.40;38.00;;;;;;5074450;28;19960;-60
2024/02/06 01:16:26;;;;;;;;;;;22.40;38.00;;;;;;5056907;28;19925;-59
2024/02/06 01:18:53;;;;;;;;;;;22.40;38.00;;;;;;5074196;28;20007;-59
2024/02/06 01:21:20;;;;;;;;;;;22.50;38.10;;;;;;5073376;28;19924;-58
2024/02/06 01:23:47;;;;;;;;;;;22.40;38.00;;;;;;5074376;28;19931;-59
2024/02/06 01:26:14;;;;;;;;;;;22.40;38.10;;;;;;5074260;28;19935;-59
2024/02/06 01:28:41;;;;;;;;;;;22.40;38.10;;;;;;5073646;28;20437;-59
2024/02/06 01:31:09;;;;;;;;;;;22.40;38.10;;;;;;5073765;28;20412;-59
2024/02/06 01:33:36;;;;;;;;;;;22.40;38.00;;;;;;5073943;28;19975;-59
2024/02/06 01:36:04;;;;;;;;;;;22.40;38.00;;;;;;5074316;28;19924;-59
2024/02/06 01:38:30;;;;;;;;;;;22.40;38.00;;;;;;5074213;28;19947;-59
2024/02/06 01:40:57;;;;;;;;;;;22.40;38.00;;;;;;5073559;28;19928;-59
2024/02/06 01:43:24;;;;;;;;;;;22.40;38.00;;;;;;5074022;28;19928;-59
2024/02/06 01:45:53;;;;;;;;;;;22.40;38.00;;;;;;5073520;28;19935;-59
2024/02/06 01:48:21;;;;;;;;;;;22.40;37.90;;;;;;5056344;28;19976;-59
2024/02/06 01:50:49;;;;;;;;;;;22.40;37.90;;;;;;5074028;28;20043;-59
2024/02/06 01:53:17;;;;;;;;;;;22.40;37.90;;;;;;5073756;28;20046;-59
2024/02/06 01:55:44;;;;;;;;;;;22.40;37.90;;;;;;5073898;28;19990;-59
2024/02/06 01:58:11;;;;;;;;;;;22.40;37.80;;;;;;5073600;28;19931;-59
2024/02/06 02:00:39;;;;;;;;;;;22.40;37.90;;;;;;5073365;28;19924;-59
2024/02/06 02:03:07;;;;;;;;;;;22.40;37.90;;;;;;5073146;28;19924;-59
2024/02/06 02:05:34;;;;;;;;;;;22.40;37.90;;;;;;5073341;28;19928;-59
2024/02/06 02:08:01;;;;;;;;;;;22.40;37.90;;;;;;5074051;28;19932;-59
2024/02/06 02:10:28;;;;;;;;;;;22.40;38.00;;;;;;5073375;28;20289;-59
2024/02/06 02:12:55;;;;;;;;;;;22.40;38.00;;;;;;5073517;28;19924;-59
2024/02/06 02:15:23;;;;;;;;;;;22.40;38.00;;;;;;5073210;28;19934;-59
2024/02/06 02:17:50;;;;;;;;;;;22.30;38.00;;;;;;5073353;28;20011;-59
2024/02/06 02:20:18;;;;;;;;;;;22.30;38.00;;;;;;5073428;28;20013;-58
2024/02/06 02:22:44;;;;;;;;;;;22.30;38.00;;;;;;5073352;28;19925;-59
2024/02/06 02:25:11;;;;;;;;;;;22.30;38.00;;;;;;5073351;28;19932;-59
2024/02/06 02:27:38;;;;;;;;;;;22.30;38.00;;;;;;5073334;28;19924;-58
2024/02/06 02:30:06;;;;;;;;;;;22.30;38.00;;;;;;5073048;28;20015;-59
2024/02/06 02:32:33;;;;;;;;;;;22.30;38.00;;;;;;5072356;28;19970;-58
2024/02/06 02:35:00;;;;;;;;;;;22.30;38.00;;;;;;5072374;28;19924;-59
2024/02/06 02:37:27;;;;;;;;;;;22.20;38.00;;;;;;5072916;28;19963;-59
2024/02/06 02:39:54;;;;;;;;;;;22.30;38.00;;;;;;5072907;28;19931;-58
2024/02/06 02:42:21;;;;;;;;;;;22.40;38.00;;;;;;5072685;28;19970;-59
2024/02/06 02:44:48;;;;;;;;;;;22.30;38.00;;;;;;5073276;28;19924;-58
2024/02/06 02:47:15;;;;;;;;;;;22.30;38.00;;;;;;5073003;28;19933;-59
2024/02/06 02:49:41;;;;;;;;;;;22.40;38.00;;;;;;5072859;28;19928;-59
2024/02/06 02:52:08;;;;;;;;;;;22.30;37.90;;;;;;5073083;28;19963;-59
2024/02/06 02:54:35;;;;;;;;;;;22.40;37.90;;;;;;5072699;28;20018;-59
2024/02/06 02:57:02;;;;;;;;;;;22.40;37.80;;;;;;5054684;28;19980;-59
2024/02/06 02:59:29;;;;;;;;;;;22.40;37.80;;;;;;5072797;28;20378;-59
2024/02/06 03:01:56;;;;;;;;;;;22.40;37.80;;;;;;5073121;28;20285;-59
2024/02/06 03:04:23;;;;;;;;;;;22.40;37.80;;;;;;5073025;28;20323;-59
2024/02/06 03:06:51;;;;;;;;;;;22.40;37.80;;;;;;5073158;28;20354;-59
2024/02/06 03:09:19;;;;;;;;;;;22.40;37.80;;;;;;5071794;28;19935;-59
2024/02/06 03:11:46;;;;;;;;;;;22.30;37.80;;;;;;5072975;28;20019;-59
2024/02/06 03:14:12;;;;;;;;;;;22.30;37.80;;;;;;5073010;28;19972;-59
2024/02/06 03:16:40;;;;;;;;;;;22.30;37.90;;;;;;5072850;28;19955;-59
2024/02/06 03:19:07;;;;;;;;;;;22.30;37.90;;;;;;5072150;28;19931;-59
2024/02/06 03:21:35;;;;;;;;;;;22.30;37.90;;;;;;5073012;28;19925;-59
2024/02/06 03:24:02;;;;;;;;;;;22.30;37.90;;;;;;5072109;28;19935;-59
2024/02/06 03:26:29;;;;;;;;;;;22.30;37.90;;;;;;5072445;28;20389;-59
2024/02/06 03:28:56;;;;;;;;;;;22.20;37.90;;;;;;5072334;28;19970;-59
2024/02/06 03:31:23;;;;;;;;;;;22.30;37.90;;;;;;5072811;28;20365;-59
2024/02/06 03:33:50;;;;;;;;;;;22.20;37.90;;;;;;5072365;28;20373;-59
2024/02/06 03:36:17;;;;;;;;;;;22.30;37.90;;;;;;5072667;28;19931;-59
2024/02/06 03:38:44;;;;;;;;;;;22.20;37.90;;;;;;5072619;28;20003;-59
2024/02/06 03:41:11;;;;;;;;;;;22.20;37.90;;;;;;5072151;28;19972;-59
2024/02/06 03:43:37;;;;;;;;;;;22.30;37.90;;;;;;5072629;28;20011;-59
2024/02/06 03:46:08;;;;;;;;;;;22.20;37.80;;;;;;5076423;28;19931;-59
2024/02/06 03:48:35;;;;;;;;;;;22.20;37.80;;;;;;5076251;28;20012;-59
2024/02/06 03:51:03;;;;;;;;;;;22.30;37.90;;;;;;5075796;28;20346;-59
2024/02/06 03:53:29;;;;;;;;;;;22.30;37.90;;;;;;5075588;28;19929;-59
2024/02/06 03:55:57;;;;;;;;;;;22.30;37.90;;;;;;5076086;28;19931;-59
2024/02/06 03:58:24;;;;;;;;;;;22.30;37.80;;;;;;5075629;28;19929;-58
2024/02/06 04:00:51;;;;;;;;;;;22.30;37.90;;;;;;5075463;28;19925;-59
2024/02/06 04:03:18;;;;;;;;;;;22.30;37.80;;;;;;5056014;28;19929;-59
2024/02/06 04:05:46;;;;;;;;;;;22.30;37.80;;;;;;5075583;28;20600;-59
2024/02/06 04:08:12;;;;;;;;;;;22.30;37.70;;;;;;5075882;28;19929;-61
2024/02/06 04:10:39;;;;;;;;;;;22.30;37.80;;;;;;5075364;28;19960;-59
2024/02/06 04:13:08;;;;;;;;;;;22.30;37.70;;;;;;5075587;28;19932;-59
2024/02/06 04:15:35;;;;;;;;;;;22.30;37.80;;;;;;5075224;28;19931;-58
2024/02/06 04:18:05;;;;;;;;;;;22.30;37.80;;;;;;5074935;28;19964;-59
2024/02/06 04:20:33;;;;;;;;;;;22.20;37.80;;;;;;5074764;28;19936;-59
2024/02/06 04:23:03;;;;;;;;;;;22.20;37.80;;;;;;5074703;28;20019;-59
2024/02/06 04:25:30;;;;;;;;;;;22.20;37.90;;;;;;5075164;28;20290;-58
2024/02/06 04:27:57;;;;;;;;;;;22.20;37.80;;;;;;5074418;28;19936;-59
2024/02/06 04:30:23;;;;;;;;;;;22.20;37.90;;;;;;5074794;28;19924;-59
2024/02/06 04:32:51;;;;;;;;;;;22.20;37.90;;;;;;5074677;28;19924;-59
2024/02/06 04:35:21;;;;;;;;;;;22.20;37.90;;;;;;5074552;28;19928;-59
2024/02/06 04:37:48;;;;;;;;;;;22.20;37.90;;;;;;5074486;28;20456;-58
2024/02/06 04:40:15;;;;;;;;;;;22.20;37.70;;;;;;5074813;28;19963;-58
2024/02/06 04:42:43;;;;;;;;;;;22.20;37.60;;;;;;5072116;28;19970;-58
2024/02/06 04:45:10;;;;;;;;;;;22.20;37.50;;;;;;5074624;28;20015;-58
2024/02/06 04:47:37;;;;;;;;;;;22.20;37.30;;;;;;5074377;28;19937;-59
2024/02/06 04:50:05;;;;;;;;;;;22.20;37.20;;;;;;5074673;28;19931;-58
2024/02/06 04:52:33;;;;;;;;;;;22.20;37.10;;;;;;5074268;28;19932;-59
2024/02/06 04:55:06;;;;;;;;;;;22.20;37.00;;;;;;5069321;28;19924;-59
2024/02/06 04:57:34;;;;;;;;;;;22.20;37.00;;;;;;5072298;28;19931;-59
2024/02/06 05:00:01;;;;;;;;;;;22.20;37.00;;;;;;5073949;28;20378;-59
2024/02/06 05:02:27;;;;;;;;;;;22.20;37.00;;;;;;5074420;28;20013;-60
2024/02/06 05:04:54;;;;;;;;;;;22.20;37.00;;;;;;5073583;28;19925;-59
2024/02/06 05:07:21;;;;;;;;;;;22.20;36.90;;;;;;5073871;28;19936;-61
2024/02/06 05:09:48;;;;;;;;;;;22.20;36.80;;;;;;5073973;28;19970;-60
2024/02/06 05:12:15;;;;;;;;;;;22.20;36.80;;;;;;5073897;28;19925;-60
2024/02/06 05:14:42;;;;;;;;;;;22.20;36.80;;;;;;5071207;28;19943;-61
2024/02/06 05:17:09;;;;;;;;;;;22.20;36.70;;;;;;5073228;28;20396;-59
2024/02/06 05:19:40;;;;;;;;;;;22.20;36.70;;;;;;5073743;28;19925;-61
2024/02/06 05:22:07;;;;;;;;;;;22.30;36.70;;;;;;5071676;28;19932;-66
2024/02/06 05:24:34;;;;;;;;;;;22.30;36.70;;;;;;5073702;28;19978;-62
2024/02/06 05:27:05;;;;;;;;;;;22.30;36.60;;;;;;5073515;28;19928;-59
2024/02/06 05:29:33;;;;;;;;;;;22.30;36.60;;;;;;5073478;28;20401;-59
2024/02/06 05:32:00;;;;;;;;;;;22.30;36.60;;;;;;5073349;28;19931;-61
2024/02/06 05:34:26;;;;;;;;;;;22.30;36.60;;;;;;5072695;28;19925;-61
2024/02/06 05:36:54;;;;;;;;;;;22.30;36.60;;;;;;5072181;28;20366;-59
2024/02/06 05:39:21;;;;;;;;;;;22.30;36.60;;;;;;5071790;28;19935;-59
2024/02/06 05:41:47;;;;;;;;;;;22.30;36.60;;;;;;5072559;28;20340;-59
2024/02/06 05:44:14;;;;;;;;;;;22.30;36.60;;;;;;5073111;28;19924;-59
2024/02/06 05:46:41;;;;;;;;;;;22.30;36.60;;;;;;5071936;28;20027;-59
2024/02/06 05:49:08;;;;;;;;;;;22.30;36.60;;;;;;5072552;28;19925;-58
2024/02/06 05:51:35;;;;;;;;;;;22.20;36.50;;;;;;5071738;28;19931;-59
2024/02/06 05:54:02;;;;;;;;;;;22.20;36.50;;;;;;5071918;28;19925;-58
2024/02/06 05:56:29;;;;;;;;;;;22.20;36.50;;;;;;5072145;28;19924;-58
2024/02/06 05:58:56;;;;;;;;;;;22.30;36.60;;;;;;5071004;28;20271;-58
2024/02/06 06:01:23;;;;;;;;;;;22.30;36.60;;;;;;5069853;28;19932;-58
2024/02/06 06:03:50;;;;;;;;;;;22.30;36.60;;;;;;5071479;28;19932;-59
2024/02/06 06:06:17;;;;;;;;;;;22.30;36.50;;;;;;5069784;28;19960;-58
2024/02/06 06:08:44;;;;;;;;;;;22.30;36.40;;;;;;5069094;28;19928;-58
2024/02/06 06:11:11;;;;;;;;;;;22.30;36.30;;;;;;5063341;28;20027;-65
2024/02/06 06:13:38;;;;;;;;;;;22.30;36.30;;;;;;5070933;28;20017;-60
2024/02/06 06:16:05;;;;;;;;;;;22.40;36.40;;;;;;5064514;28;19925;-60
2024/02/06 06:18:32;;;;;;;;;;;22.40;36.50;;;;;;5070634;28;20428;-59
2024/02/06 06:20:59;;;;;;;;;;;22.40;36.50;;;;;;5059427;28;20027;-59
2024/02/06 06:23:27;;;;;;;;;;;22.40;36.50;;;;;;5063820;28;19943;-61
2024/02/06 06:25:54;;;;;;;;;;;22.40;36.70;;;;;;5052581;28;19966;-61
2024/02/06 06:28:21;;;;;;;;;;;22.40;36.90;;;;;;5067200;28;19939;-61
2024/02/06 06:30:48;;;;;;;;;;;22.50;37.10;;;;;;5069486;28;19956;-61
2024/02/06 06:33:18;;;;;;;;;;;22.50;37.40;;;;;;5063568;28;19933;-62
2024/02/06 06:35:46;;;;;;;;;;;22.50;37.40;;;;;;5063828;28;19925;-61
2024/02/06 06:38:13;;;;;;;;;;;22.60;37.50;;;;;;5066368;28;19932;-61
2024/02/06 06:40:40;;;;;;;;;;;22.60;37.60;;;;;;5066442;28;19932;-60
2024/02/06 06:43:10;;;;;;;;;;;22.70;37.70;;;;;;5059228;28;19932;-59
2024/02/06 06:45:37;;;;;;;;;;;22.70;37.60;;;;;;5061266;28;20679;-60
2024/02/06 06:48:05;;;;;;;;;;;22.80;37.30;;;;;;5059921;28;19933;-60
2024/02/06 06:50:32;;;;;;;;;;;22.80;37.00;;;;;;5057995;28;20434;-60
2024/02/06 06:53:00;;;;;;;;;;;22.80;36.90;;;;;;5050670;28;19925;-61
2024/02/06 06:55:27;;;;;;;;;;;22.80;36.80;;;;;;5062183;28;19928;-60
2024/02/06 06:57:54;;;;;;;;;;;22.90;36.90;;;;;;5066507;28;19928;-61
2024/02/06 07:00:21;;;;;;;;;;;23.00;37.00;;;;;;5064372;28;19929;-60
2024/02/06 07:02:49;;;;;;;;;;;23.00;37.30;;;;;;5048805;28;19924;-64
2024/02/06 07:05:20;;;;;;;;;;;23.10;37.50;;;;;;5057996;28;20440;-61
2024/02/06 07:07:47;;;;;;;;;;;23.10;37.70;;;;;;5064473;28;20022;-61
2024/02/06 07:10:14;;;;;;;;;;;23.30;37.80;;;;;;5062915;28;19956;-59
2024/02/06 07:12:42;;;;;;;;;;;23.30;37.80;;;;;;5067271;28;19998;-62
2024/02/06 07:15:09;;;;;;;;;;;23.30;37.90;;;;;;5063516;28;19932;-60
2024/02/06 07:17:36;;;;;;;;;;;23.40;38.00;;;;;;5058020;28;19974;-59
2024/02/06 07:20:03;;;;;;;;;;;23.40;38.10;;;;;;5048484;28;19974;-61
2024/02/06 07:22:33;;;;;;;;;;;23.50;38.00;;;;;;5068176;28;19933;-60
2024/02/06 07:25:00;;;;;;;;;;;23.60;37.90;;;;;;5063725;28;19936;-59
2024/02/06 07:27:27;;;;;;;;;;;23.60;37.80;;;;;;5066900;28;19931;-60
2024/02/06 07:29:54;;;;;;;;;;;23.70;37.80;;;;;;5063276;28;19982;-59
2024/02/06 07:32:21;;;;;;;;;;;23.70;37.60;;;;;;5067411;28;19924;-61
2024/02/06 07:34:48;;;;;;;;;;;23.70;37.50;;;;;;5061660;28;20015;-62
2024/02/06 07:37:18;;;;;;;;;;;23.80;37.40;;;;;;5059901;28;19928;-60
2024/02/06 07:39:44;;;;;;;;;;;23.80;37.10;;;;;;5060561;28;20397;-60
2024/02/06 07:42:11;;;;;;;;;;;23.90;37.20;;;;;;5067290;28;20051;-60
2024/02/06 07:44:38;;;;;;;;;;;23.90;37.20;;;;;;5070570;28;19984;-59
2024/02/06 07:47:05;;;;;;;;;;;24.00;37.20;;;;;;5065451;28;19929;-60
2024/02/06 07:49:32;;;;;;;;;;;24.00;37.20;;;;;;5066806;28;19986;-59
2024/02/06 07:51:59;;;;;;;;;;;24.10;37.00;;;;;;5063037;28;20425;-60
2024/02/06 07:54:27;;;;;;;;;;;24.10;36.90;;;;;;5060425;28;19935;-61
2024/02/06 07:56:54;;;;;;;;;;;24.20;37.00;;;;;;5043649;28;20381;-61
2024/02/06 07:59:21;;;;;;;;;;;24.20;36.90;;;;;;5062409;28;19935;-60
2024/02/06 08:01:48;;;;;;;;;;;24.30;36.90;;;;;;5045276;28;19975;-62
2024/02/06 08:04:16;;;;;;;;;;;24.30;36.80;;;;;;5064253;28;19924;-59
2024/02/06 08:06:45;;;;;;;;;;;24.30;36.80;;;;;;5042305;28;20196;-61
2024/02/06 08:09:13;;;;;;;;;;;24.40;36.80;;;;;;5063869;28;20382;-61
2024/02/06 08:11:42;;;;;;;;;;;24.40;36.90;;;;;;5059442;28;20366;-60
2024/02/06 08:14:12;;;;;;;;;;;24.50;36.90;;;;;;5063660;28;19997;-62
2024/02/06 08:16:40;;;;;;;;;;;24.50;36.80;;;;;;5070388;28;19982;-63
2024/02/06 08:19:08;;;;;;;;;;;24.50;36.70;;;;;;5046586;28;20009;-62
2024/02/06 08:21:35;;;;;;;;;;;24.60;36.80;;;;;;5069648;28;19932;-61
2024/02/06 08:24:03;;;;;;;;;;;24.60;36.70;;;;;;5060623;28;19969;-61
2024/02/06 08:26:29;;;;;;;;;;;24.60;36.70;;;;;;5061232;28;19936;-59
2024/02/06 08:28:56;;;;;;;;;;;24.70;36.60;;;;;;5063756;28;20030;-60
2024/02/06 08:31:24;;;;;;;;;;;24.70;36.60;;;;;;5069023;28;19924;-59
2024/02/06 08:33:52;;;;;;;;;;;24.70;36.50;;;;;;5045117;28;19944;-61
2024/02/06 08:36:19;;;;;;;;;;;24.70;36.50;;;;;;5057365;28;20457;-59
2024/02/06 08:38:46;;;;;;;;;;;24.80;36.60;;;;;;5058475;28;19976;-60
2024/02/06 08:41:13;;;;;;;;;;;24.80;36.50;;;;;;5059780;28;19936;-60
2024/02/06 08:43:40;;;;;;;;;;;24.80;36.30;;;;;;5062119;28;19948;-60
2024/02/06 08:46:22;;;;;;;;;;;24.80;36.20;;;;;;5064379;28;19931;-60
2024/02/06 08:48:49;;;;;;;;;;;24.80;36.10;;;;;;5062163;28;20062;-60
2024/02/06 08:51:16;;;;;;;;;;;24.80;36.00;;;;;;5061407;28;19928;-62
2024/02/06 08:53:43;;;;;;;;;;;24.80;35.90;;;;;;5044367;28;19924;-60
2024/02/06 08:56:10;;;;;;;;;;;24.80;35.90;;;;;;5064721;28;19932;-64
2024/02/06 08:58:37;;;;;;;;;;;24.90;35.90;;;;;;5061167;28;19932;-61
2024/02/06 09:01:05;;;;;;;;;;;24.90;35.90;;;;;;5064724;28;20024;-60
2024/02/06 09:03:34;;;;;;;;;;;24.90;36.00;;;;;;5057836;28;19960;-61
2024/02/06 09:06:01;;;;;;;;;;;24.90;35.90;;;;;;5067694;28;20059;-63
2024/02/06 09:08:28;;;;;;;;;;;24.90;35.90;;;;;;5058375;28;19925;-60
2024/02/06 09:10:55;;;;;;;;;;;24.90;35.80;;;;;;5078285;28;19932;-61
2024/02/06 09:13:23;;;;;;;;;;;25.00;35.80;;;;;;5064351;28;19978;-59
2024/02/06 09:15:51;;;;;;;;;;;24.90;35.60;;;;;;5063122;28;20008;-60
2024/02/06 09:18:19;;;;;;;;;;;25.00;35.60;;;;;;5056570;28;19939;-60
2024/02/06 09:20:47;;;;;;;;;;;25.00;35.40;;;;;;5062505;28;19929;-60
2024/02/06 09:23:14;;;;;;;;;;;25.00;35.30;;;;;;5062780;28;20011;-60
2024/02/06 09:25:43;;;;;;;;;;;25.00;35.20;;;;;;5056654;28;19962;-61
2024/02/06 09:28:10;;;;;;;;;;;25.00;35.10;;;;;;5060242;28;19931;-60
2024/02/06 09:30:39;;;;;;;;;;;25.10;35.30;;;;;;5041144;28;19933;-61
2024/02/06 09:33:07;;;;;;;;;;;25.10;35.40;;;;;;5061830;28;20397;-60
2024/02/06 09:35:35;;;;;;;;;;;25.10;35.50;;;;;;5062862;28;19982;-60
2024/02/06 09:38:02;;;;;;;;;;;25.10;35.60;;;;;;5042500;28;19931;-60
2024/02/06 09:40:31;;;;;;;;;;;25.10;35.60;;;;;;5060942;28;19924;-61
2024/02/06 09:42:59;;;;;;;;;;;25.10;35.60;;;;;;5062741;28;20332;-60
2024/02/06 09:45:26;;;;;;;;;;;25.10;35.60;;;;;;5064778;28;20282;-60
2024/02/06 09:47:53;;;;;;;;;;;25.10;35.70;;;;;;5063154;28;20356;-61
2024/02/06 09:50:20;;;;;;;;;;;25.10;35.80;;;;;;5064365;28;19932;-60
2024/02/06 09:52:50;;;;;;;;;;;25.10;35.70;;;;;;5060346;28;19990;-59
2024/02/06 09:55:20;;;;;;;;;;;25.20;35.80;;;;;;5063875;28;20035;-59
2024/02/06 09:57:48;;;;;;;;;;;25.20;35.90;;;;;;5060397;28;19933;-59
2024/02/06 10:00:18;;;;;;;;;;;25.20;36.00;;;;;;5058276;28;20058;-62
2024/02/06 10:02:47;;;;;;;;;;;25.20;35.80;;;;;;5059848;28;20385;-62
2024/02/06 10:05:22;;;;;;;;;;;25.20;35.80;;;;;;5060733;28;19932;-63
2024/02/06 10:07:50;;;;;;;;;;;25.30;35.90;;;;;;5063632;28;19939;-60
2024/02/06 10:10:18;;;;;;;;;;;25.30;35.90;;;;;;5067262;28;19994;-61
2024/02/06 10:12:50;;;;;;;;;;;25.30;35.90;;;;;;5056711;28;20019;-58
2024/02/06 10:15:24;;;;;;;;;;;25.30;36.00;;;;;;5037643;28;19928;-60
2024/02/06 10:17:55;;;;;;;;;;;25.30;36.10;;;;;;5060617;28;19932;-61
2024/02/06 10:20:22;;;;;;;;;;;25.40;36.10;;;;;;5058683;28;20296;-61
2024/02/06 10:22:50;;;;;;;;;;;25.40;36.10;;;;;;5061925;28;20023;-59
2024/02/06 10:25:17;;;;;;;;;;;25.40;36.20;;;;;;5060569;28;20048;-61
2024/02/06 10:27:44;;;;;;;;;;;25.40;36.10;;;;;;5058304;28;20809;-61
2024/02/06 10:30:12;;;;;;;;;;;25.40;36.10;;;;;;5061234;28;19931;-64
2024/02/06 10:32:39;;;;;;;;;;;25.40;36.00;;;;;;5064264;28;19932;-63
2024/02/06 10:35:07;;;;;;;;;;;25.40;36.00;;;;;;5066965;28;20251;-60
2024/02/06 10:37:39;;;;;;;;;;;25.40;36.10;;;;;;5061467;28;20336;-61
2024/02/06 10:40:07;;;;;;;;;;;25.40;36.20;;;;;;5055283;28;19939;-60
2024/02/06 10:42:35;;;;;;;;;;;25.50;36.20;;;;;;5056836;28;19932;-59
2024/02/06 10:45:22;;;;;;;;;;;25.50;36.30;;;;;;5059055;28;20027;-62
2024/02/06 10:47:59;;;;;;;;;;;25.50;36.20;;;;;;5059006;28;20558;-59
2024/02/06 10:50:29;;;;;;;;;;;25.50;35.70;;;;;;5058887;28;20374;-55
2024/02/06 10:52:57;;;;;;;;;;;25.50;35.20;;;;;;5064024;28;19928;-55
2024/02/06 10:55:25;;;;;;;;;;;25.50;35.00;;;;;;5061276;28;19936;-56
2024/02/06 10:57:59;;;;;;;;;;;25.50;34.70;;;;;;5064883;28;19924;-58
2024/02/06 11:00:28;;;;;;;;;;;25.50;34.80;;;;;;5063631;28;20392;-59
2024/02/06 11:02:58;;;;;;;;;;;25.50;34.80;;;;;;5064559;28;19924;-58
2024/02/06 11:05:33;;;;;;;;;;;25.50;34.90;;;;;;5067976;28;20438;-61
2024/02/06 11:08:09;;;;;;;;;;;25.50;35.10;;;;;;5066810;28;20027;-60
2024/02/06 11:10:39;;;;;;;;;;;25.50;35.10;;;;;;5050350;28;19955;-59
2024/02/06 11:13:07;;;;;;;;;;;25.50;35.10;;;;;;5064730;28;19931;-61
2024/02/06 11:15:37;;;;;;;;;;;25.40;35.10;;;;;;5064927;28;20027;-59
2024/02/06 11:18:12;;;;;;;;;;;25.50;35.20;;;;;;5046818;28;19936;-59
2024/02/06 11:20:40;;;;;;;;;;;25.50;35.20;;;;;;5065518;28;19928;-59
2024/02/06 11:23:07;;;;;;;;;;;25.50;35.20;;;;;;5060634;28;19925;-60
2024/02/06 11:25:35;;;;;;;;;;;25.50;35.20;;;;;;5062299;28;20255;-58
2024/02/06 11:28:03;;;;;;;;;;;25.50;35.10;;;;;;5064058;28;19929;-58
2024/02/06 11:30:32;;;;;;;;;;;25.50;35.10;;;;;;5064572;28;20396;-58
2024/02/06 11:33:08;;;;;;;;;;;25.50;35.00;;;;;;5064913;28;19982;-58
2024/02/06 11:35:36;;;;;;;;;;;25.50;34.90;;;;;;5062033;28;19935;-58
2024/02/06 11:38:03;;;;;;;;;;;25.50;34.90;;;;;;5060468;28;19935;-58
2024/02/06 11:40:32;;;;;;;;;;;25.50;34.90;;;;;;5063852;28;19924;-58
2024/02/06 11:43:03;;;;;;;;;;;25.50;34.90;;;;;;5060754;28;19963;-59
2024/02/06 11:45:32;;;;;;;;;;;25.50;34.90;;;;;;5059527;28;19970;-59
2024/02/06 11:48:00;;;;;;;;;;;25.50;34.90;;;;;;5059200;28;20344;-59
2024/02/06 11:50:44;;;;;;;;;;;25.50;34.90;;;;;;5065435;28;19978;-60
2024/02/06 11:53:15;;;;;;;;;;;25.50;34.90;;;;;;5060766;28;19933;-59
2024/02/06 11:55:43;;;;;;;;;;;25.50;35.00;;;;;;5040299;28;20380;-58
2024/02/06 11:58:11;;;;;;;;;;;25.50;34.90;;;;;;5053803;28;19944;-59
2024/02/06 12:00:38;;;;;;;;;;;25.50;34.90;;;;;;5060287;28;19925;-59
2024/02/06 12:03:05;;;;;;;;;;;25.50;35.00;;;;;;5056557;28;19929;-58
2024/02/06 12:05:37;;;;;;;;;;;25.50;35.10;;;;;;5061414;28;21421;-58
2024/02/06 12:08:07;;;;;;;;;;;25.40;35.00;;;;;;5063465;28;19932;-58
2024/02/06 12:10:35;;;;;;;;;;;25.40;35.10;;;;;;5063692;28;19951;-58
2024/02/06 12:13:06;;;;;;;;;;;25.40;35.20;;;;;;5063000;28;19932;-58
2024/02/06 12:15:34;;;;;;;;;;;25.40;35.30;;;;;;5060105;28;19955;-58
2024/02/06 12:18:05;;;;;;;;;;;25.40;35.20;;;;;;5058430;28;20015;-58
2024/02/06 12:20:32;;;;;;;;;;;25.50;35.20;;;;;;5057631;28;19932;-58
2024/02/06 12:23:03;;;;;;;;;;;25.50;35.00;;;;;;5044489;28;20082;-58
2024/02/06 12:25:30;;;;;;;;;;;25.50;35.00;;;;;;5061398;28;20394;-59
2024/02/06 12:28:01;;;;;;;;;;;25.50;35.10;;;;;;5063988;28;19963;-60
2024/02/06 12:30:29;;;;;;;;;;;25.50;35.20;;;;;;5040229;28;19932;-58
2024/02/06 12:33:01;;;;;;;;;;;25.50;35.10;;;;;;5061306;28;20329;-62
2024/02/06 12:35:28;;;;;;;;;;;25.50;35.10;;;;;;5063514;28;19928;-59
2024/02/06 12:37:57;;;;;;;;;;;25.50;35.00;;;;;;5063725;28;19967;-58
2024/02/06 12:40:27;;;;;;;;;;;25.50;34.60;;;;;;5049759;28;19967;-57
2024/02/06 12:42:59;;;;;;;;;;;25.50;34.70;;;;;;5044301;28;19929;-58
2024/02/06 12:45:27;;;;;;;;;;;25.50;34.40;;;;;;5064007;28;19939;-55
2024/02/06 12:47:55;;;;;;;;;;;25.50;34.30;;;;;;5065218;28;19991;-58
2024/02/06 12:50:23;;;;;;;;;;;25.50;34.30;;;;;;5041508;28;19999;-59
2024/02/06 12:52:54;;;;;;;;;;;25.50;34.00;;;;;;5059377;28;19933;-59
2024/02/06 12:55:21;;;;;;;;;;;25.50;33.90;;;;;;5059658;28;19928;-57
2024/02/06 12:57:51;;;;;;;;;;;25.60;33.90;;;;;;5063924;28;19925;-58
2024/02/06 13:00:18;;;;;;;;;;;25.60;33.90;;;;;;5062515;28;20377;-62
2024/02/06 13:02:45;;;;;;;;;;;25.60;33.90;;;;;;5064168;28;20381;-62
2024/02/06 13:05:12;;;;;;;;;;;25.60;33.90;;;;;;5063750;28;20007;-58
2024/02/06 13:07:40;;;;;;;;;;;25.60;33.80;;;;;;5066494;28;20068;-63
2024/02/06 13:10:08;;;;;;;;;;;25.50;33.70;;;;;;5060707;28;19933;-62
2024/02/06 13:12:36;;;;;;;;;;;25.60;33.90;;;;;;5064551;28;19932;-62
2024/02/06 13:15:06;;;;;;;;;;;25.60;33.90;;;;;;5062668;28;19924;-62
2024/02/06 13:17:34;;;;;;;;;;;25.60;34.00;;;;;;5065266;28;20042;-61
2024/02/06 13:20:05;;;;;;;;;;;25.60;34.00;;;;;;5060489;28;19935;-59
2024/02/06 13:22:37;;;;;;;;;;;25.50;33.80;;;;;;5067863;28;19962;-61
2024/02/06 13:25:04;;;;;;;;;;;25.60;33.90;;;;;;5063218;28;20282;-58
2024/02/06 13:27:32;;;;;;;;;;;25.60;33.80;;;;;;5062793;28;20436;-58
2024/02/06 13:29:59;;;;;;;;;;;25.60;33.80;;;;;;5043459;28;19971;-58
2024/02/06 13:32:26;;;;;;;;;;;25.60;33.90;;;;;;5064736;28;19924;-58
2024/02/06 13:34:53;;;;;;;;;;;25.50;33.70;;;;;;5065388;28;19924;-59
2024/02/06 13:37:20;;;;;;;;;;;25.50;33.80;;;;;;5065400;28;20205;-59
2024/02/06 13:39:47;;;;;;;;;;;25.50;33.80;;;;;;5066362;28;19978;-59
2024/02/06 13:42:14;;;;;;;;;;;25.50;33.50;;;;;;5063167;28;19932;-61
2024/02/06 13:44:41;;;;;;;;;;;25.50;33.50;;;;;;5064582;28;20550;-58
2024/02/06 13:47:08;;;;;;;;;;;25.50;33.50;;;;;;5067398;28;19936;-58
2024/02/06 13:49:36;;;;;;;;;;;25.60;33.60;;;;;;5062516;28;19932;-58
2024/02/06 13:52:03;;;;;;;;;;;25.50;33.60;;;;;;5065658;28;19924;-59
2024/02/06 13:54:30;;;;;;;;;;;25.50;33.60;;;;;;5062765;28;19931;-58
2024/02/06 13:56:57;;;;;;;;;;;25.50;33.70;;;;;;5063145;28;19928;-58
2024/02/06 13:59:25;;;;;;;;;;;25.50;34.00;;;;;;5046590;28;19931;-59
2024/02/06 14:01:54;;;;;;;;;;;25.50;34.20;;;;;;5061798;28;19935;-60
2024/02/06 14:04:22;;;;;;;;;;;25.50;34.10;;;;;;5047238;28;19936;-59
2024/02/06 14:06:49;;;;;;;;;;;25.50;34.20;;;;;;5066921;28;20040;-59
2024/02/06 14:09:17;;;;;;;;;;;25.50;34.30;;;;;;5063135;28;19932;-59
2024/02/06 14:11:44;;;;;;;;;;;25.50;34.40;;;;;;5058941;28;20401;-59
2024/02/06 14:14:11;;;;;;;;;;;25.50;34.40;;;;;;5050309;28;21669;-59
2024/02/06 14:16:38;;;;;;;;;;;25.50;34.40;;;;;;5062900;28;20294;-60
2024/02/06 14:19:06;;;;;;;;;;;25.50;34.40;;;;;;5062179;28;21765;-60